Hlavní strana
METAR-TAF:

METAR-TAF

Letiště :

Kuusamo, Finsko

zeměpisná šířka: 65-58N, zeměpisná délka: 029-11E, výška: 262 m

Aktuální stav počasí

Zpráva byla vytvořena před 10 minutami, v 12:20 UTC
Západní vítr 6 kt, proměnlivý mezi jihojihozápadním a severoseverozápadním
Teplota 18°C
Vlhkost vzduchu 52%
Tlak 1010 hPa
Viditelnost 10 km a více
Žádná oblačnost pod 1500 m, nevyskytují se cumulonimby.

METAR: EFKS 041220Z AUTO 26006KT 210V330 CAVOK 18/08 Q1010

Čas: 15:30 (12:30 UTC)


TAF: chybějící

Stav a předpovědi počasí z více než 4 000 letišť (zprávy METAR a TAF).

Červené a žluté tečky na mapě představují dostupné meteorologické stanice.

Když kurzor umístíte na tečku, zobrazí se název stanice.

Pak kliknutím zobrazíte stav a předpověď počasí.

Chcete-li změnit mapu, kliknutím na zelené tlačítko se znaménkem +mapu přiblížíte, kliknutím na zelené tlačítko se znaménkem – mapu oddálíte a kliknutím na zelené šipky přejdete na sousední mapy.


METAR-TAF: